sensor_id;sensor_type;location;lat;lon;timestamp;pressure;altitude;pressure_sealevel;temperature;humidity
78149;BME280;67396;42.664;23.382;2023-07-13T00:01:43;95180.25;;;25.25;41.74
78149;BME280;67396;42.664;23.382;2023-07-13T00:04:09;95183.66;;;25.29;42.14
78149;BME280;67396;42.664;23.382;2023-07-13T00:06:34;95174.66;;;25.16;42.24
78149;BME280;67396;42.664;23.382;2023-07-13T00:09:00;95178.75;;;25.15;42.61
78149;BME280;67396;42.664;23.382;2023-07-13T00:11:27;95174.97;;;25.18;42.99
78149;BME280;67396;42.664;23.382;2023-07-13T00:13:53;95176.38;;;25.22;43.07
78149;BME280;67396;42.664;23.382;2023-07-13T00:16:19;95174.59;;;25.34;42.74
78149;BME280;67396;42.664;23.382;2023-07-13T00:18:45;95174.94;;;25.27;43.44
78149;BME280;67396;42.664;23.382;2023-07-13T00:21:11;95163.69;;;25.27;43.60
78149;BME280;67396;42.664;23.382;2023-07-13T00:23:39;95163.44;;;25.16;43.68
78149;BME280;67396;42.664;23.382;2023-07-13T00:26:07;95167.50;;;25.15;43.87
78149;BME280;67396;42.664;23.382;2023-07-13T00:28:33;95163.69;;;25.27;42.61
78149;BME280;67396;42.664;23.382;2023-07-13T00:30:59;95163.22;;;25.28;41.92
78149;BME280;67396;42.664;23.382;2023-07-13T00:33:25;95154.31;;;25.30;41.87
78149;BME280;67396;42.664;23.382;2023-07-13T00:35:54;95159.31;;;25.26;42.97
78149;BME280;67396;42.664;23.382;2023-07-13T00:38:19;95159.72;;;25.09;43.68
78149;BME280;67396;42.664;23.382;2023-07-13T00:40:45;95158.19;;;24.99;43.04
78149;BME280;67396;42.664;23.382;2023-07-13T00:43:20;95147.94;;;24.96;42.74
78149;BME280;67396;42.664;23.382;2023-07-13T00:48:15;95156.28;;;24.54;43.89
78149;BME280;67396;42.664;23.382;2023-07-13T00:50:44;95166.91;;;24.32;44.18
78149;BME280;67396;42.664;23.382;2023-07-13T00:53:12;95166.13;;;24.04;44.97
78149;BME280;67396;42.664;23.382;2023-07-13T00:55:38;95160.84;;;24.15;44.81
78149;BME280;67396;42.664;23.382;2023-07-13T00:58:05;95162.41;;;24.16;44.96
78149;BME280;67396;42.664;23.382;2023-07-13T01:00:33;95154.75;;;23.89;45.81
78149;BME280;67396;42.664;23.382;2023-07-13T01:02:59;95161.38;;;23.46;47.23
78149;BME280;67396;42.664;23.382;2023-07-13T01:05:30;95155.44;;;23.44;47.41
78149;BME280;67396;42.664;23.382;2023-07-13T01:07:57;95157.06;;;23.54;47.11
78149;BME280;67396;42.664;23.382;2023-07-13T01:10:24;95152.94;;;23.37;48.17
78149;BME280;67396;42.664;23.382;2023-07-13T01:12:50;95156.03;;;23.21;47.34
78149;BME280;67396;42.664;23.382;2023-07-13T01:15:42;95158.97;;;23.17;47.81
78149;BME280;67396;42.664;23.382;2023-07-13T01:18:10;95157.69;;;23.09;48.01
78149;BME280;67396;42.664;23.382;2023-07-13T01:20:37;95152.41;;;23.11;48.04
78149;BME280;67396;42.664;23.382;2023-07-13T01:23:10;95158.22;;;23.26;48.05
78149;BME280;67396;42.664;23.382;2023-07-13T01:25:38;95149.19;;;23.40;47.88
78149;BME280;67396;42.664;23.382;2023-07-13T01:28:04;95151.47;;;23.14;48.77
78149;BME280;67396;42.664;23.382;2023-07-13T01:30:30;95150.53;;;23.08;49.02
78149;BME280;67396;42.664;23.382;2023-07-13T01:32:57;95155.88;;;23.24;48.38
78149;BME280;67396;42.664;23.382;2023-07-13T01:35:23;95150.28;;;23.34;48.21
78149;BME280;67396;42.664;23.382;2023-07-13T01:37:50;95154.06;;;23.49;48.47
78149;BME280;67396;42.664;23.382;2023-07-13T01:40:16;95154.88;;;23.68;47.78
78149;BME280;67396;42.664;23.382;2023-07-13T01:42:42;95157.41;;;23.66;47.46
78149;BME280;67396;42.664;23.382;2023-07-13T01:45:07;95152.41;;;23.70;47.46
78149;BME280;67396;42.664;23.382;2023-07-13T01:47:33;95151.94;;;23.80;47.00
78149;BME280;67396;42.664;23.382;2023-07-13T01:49:58;95156.78;;;23.71;47.87
78149;BME280;67396;42.664;23.382;2023-07-13T01:52:23;95147.91;;;23.72;47.23
78149;BME280;67396;42.664;23.382;2023-07-13T01:54:49;95142.31;;;23.81;46.94
78149;BME280;67396;42.664;23.382;2023-07-13T01:57:14;95142.44;;;23.87;46.60
78149;BME280;67396;42.664;23.382;2023-07-13T01:59:40;95137.47;;;23.82;46.84
78149;BME280;67396;42.664;23.382;2023-07-13T02:02:06;95146.47;;;23.58;47.39
78149;BME280;67396;42.664;23.382;2023-07-13T02:04:31;95151.22;;;23.40;47.50
78149;BME280;67396;42.664;23.382;2023-07-13T02:06:57;95157.06;;;23.14;48.57
78149;BME280;67396;42.664;23.382;2023-07-13T02:09:22;95159.00;;;22.86;49.27
78149;BME280;67396;42.664;23.382;2023-07-13T02:11:48;95151.84;;;22.85;49.28
78149;BME280;67396;42.664;23.382;2023-07-13T02:14:14;95151.34;;;22.56;50.59
78149;BME280;67396;42.664;23.382;2023-07-13T02:16:40;95148.78;;;22.40;50.79
78149;BME280;67396;42.664;23.382;2023-07-13T02:19:07;95151.00;;;22.23;51.63
78149;BME280;67396;42.664;23.382;2023-07-13T02:21:32;95151.97;;;22.29;52.24
78149;BME280;67396;42.664;23.382;2023-07-13T02:23:58;95154.25;;;22.22;52.58
78149;BME280;67396;42.664;23.382;2023-07-13T02:26:25;95152.94;;;22.35;52.15
78149;BME280;67396;42.664;23.382;2023-07-13T02:28:51;95158.47;;;22.48;51.73
78149;BME280;67396;42.664;23.382;2023-07-13T02:31:17;95167.53;;;22.61;51.80
78149;BME280;67396;42.664;23.382;2023-07-13T02:33:43;95164.56;;;22.77;51.08
78149;BME280;67396;42.664;23.382;2023-07-13T02:36:09;95165.22;;;22.91;50.64
78149;BME280;67396;42.664;23.382;2023-07-13T02:38:35;95162.31;;;22.94;50.97
78149;BME280;67396;42.664;23.382;2023-07-13T02:41:02;95166.31;;;22.84;51.05
78149;BME280;67396;42.664;23.382;2023-07-13T02:43:28;95165.59;;;23.02;50.74
78149;BME280;67396;42.664;23.382;2023-07-13T02:45:55;95166.50;;;22.99;50.74
78149;BME280;67396;42.664;23.382;2023-07-13T02:48:24;95160.59;;;22.97;50.70
78149;BME280;67396;42.664;23.382;2023-07-13T02:50:52;95159.00;;;22.86;50.34
78149;BME280;67396;42.664;23.382;2023-07-13T02:53:19;95177.09;;;22.95;50.08
78149;BME280;67396;42.664;23.382;2023-07-13T02:55:44;95167.59;;;22.92;49.13
78149;BME280;67396;42.664;23.382;2023-07-13T02:58:12;95168.31;;;22.83;49.59
78149;BME280;67396;42.664;23.382;2023-07-13T03:00:42;95175.69;;;22.68;49.39
78149;BME280;67396;42.664;23.382;2023-07-13T03:03:07;95171.28;;;22.58;50.08
78149;BME280;67396;42.664;23.382;2023-07-13T03:05:33;95173.81;;;22.43;50.35
78149;BME280;67396;42.664;23.382;2023-07-13T03:07:58;95177.78;;;22.11;51.56
78149;BME280;67396;42.664;23.382;2023-07-13T03:10:23;95179.69;;;22.14;51.59
78149;BME280;67396;42.664;23.382;2023-07-13T03:12:49;95180.25;;;22.09;51.75
78149;BME280;67396;42.664;23.382;2023-07-13T03:15:14;95183.00;;;22.22;51.65
78149;BME280;67396;42.664;23.382;2023-07-13T03:17:40;95181.81;;;22.10;51.80
78149;BME280;67396;42.664;23.382;2023-07-13T03:20:06;95181.09;;;22.19;51.69
78149;BME280;67396;42.664;23.382;2023-07-13T03:22:32;95186.50;;;22.35;51.31
78149;BME280;67396;42.664;23.382;2023-07-13T03:24:57;95180.78;;;22.39;51.40
78149;BME280;67396;42.664;23.382;2023-07-13T03:27:23;95180.25;;;22.53;50.91
78149;BME280;67396;42.664;23.382;2023-07-13T03:29:48;95178.28;;;22.63;51.01
78149;BME280;67396;42.664;23.382;2023-07-13T03:32:14;95178.00;;;22.70;50.76
78149;BME280;67396;42.664;23.382;2023-07-13T03:34:39;95186.34;;;22.82;50.28
78149;BME280;67396;42.664;23.382;2023-07-13T03:37:05;95193.22;;;22.91;50.61
78149;BME280;67396;42.664;23.382;2023-07-13T03:39:30;95193.31;;;23.09;49.80
78149;BME280;67396;42.664;23.382;2023-07-13T03:41:56;95190.56;;;23.18;49.47
78149;BME280;67396;42.664;23.382;2023-07-13T03:44:21;95187.13;;;23.23;49.85
78149;BME280;67396;42.664;23.382;2023-07-13T03:46:46;95179.63;;;23.11;50.68
78149;BME280;67396;42.664;23.382;2023-07-13T03:49:12;95183.09;;;23.24;49.89
78149;BME280;67396;42.664;23.382;2023-07-13T03:51:37;95173.28;;;23.19;51.00
78149;BME280;67396;42.664;23.382;2023-07-13T03:54:03;95178.25;;;23.15;50.82
78149;BME280;67396;42.664;23.382;2023-07-13T03:56:29;95183.06;;;23.15;51.21
78149;BME280;67396;42.664;23.382;2023-07-13T03:58:56;95183.69;;;23.10;51.76
78149;BME280;67396;42.664;23.382;2023-07-13T04:01:23;95184.06;;;23.30;50.80
78149;BME280;67396;42.664;23.382;2023-07-13T04:03:50;95187.50;;;23.43;50.43
78149;BME280;67396;42.664;23.382;2023-07-13T04:06:25;95186.34;;;23.62;50.37
78149;BME280;67396;42.664;23.382;2023-07-13T04:08:53;95189.13;;;23.53;50.97
78149;BME280;67396;42.664;23.382;2023-07-13T04:11:20;95181.03;;;23.55;50.47
78149;BME280;67396;42.664;23.382;2023-07-13T04:13:47;95183.56;;;23.81;50.29
78149;BME280;67396;42.664;23.382;2023-07-13T04:16:14;95184.34;;;23.72;50.73
78149;BME280;67396;42.664;23.382;2023-07-13T04:18:40;95194.72;;;23.53;51.58
78149;BME280;67396;42.664;23.382;2023-07-13T04:21:06;95188.38;;;23.22;52.40
78149;BME280;67396;42.664;23.382;2023-07-13T04:23:32;95198.56;;;23.38;54.72
78149;BME280;67396;42.664;23.382;2023-07-13T04:25:57;95205.06;;;23.75;48.41
78149;BME280;67396;42.664;23.382;2023-07-13T04:28:24;95204.59;;;23.94;48.22
78149;BME280;67396;42.664;23.382;2023-07-13T04:30:50;95203.84;;;24.12;47.90
78149;BME280;67396;42.664;23.382;2023-07-13T04:33:16;95203.25;;;24.45;47.24
78149;BME280;67396;42.664;23.382;2023-07-13T04:35:43;95202.22;;;24.84;47.31
78149;BME280;67396;42.664;23.382;2023-07-13T04:38:08;95195.00;;;25.10;46.43
78149;BME280;67396;42.664;23.382;2023-07-13T04:40:36;95205.38;;;25.28;47.12
78149;BME280;67396;42.664;23.382;2023-07-13T04:43:02;95207.25;;;25.31;45.99
78149;BME280;67396;42.664;23.382;2023-07-13T04:45:27;95202.75;;;25.16;46.14
78149;BME280;67396;42.664;23.382;2023-07-13T04:47:53;95207.78;;;25.11;46.49
78149;BME280;67396;42.664;23.382;2023-07-13T04:50:18;95202.63;;;25.43;45.15
78149;BME280;67396;42.664;23.382;2023-07-13T04:52:51;95220.09;;;25.56;44.46
78149;BME280;67396;42.664;23.382;2023-07-13T04:55:18;95210.13;;;25.79;43.96
78149;BME280;67396;42.664;23.382;2023-07-13T04:57:44;95212.72;;;25.68;44.78
78149;BME280;67396;42.664;23.382;2023-07-13T05:00:10;95211.91;;;25.34;46.22
78149;BME280;67396;42.664;23.382;2023-07-13T05:02:37;95210.44;;;25.15;47.16
78149;BME280;67396;42.664;23.382;2023-07-13T05:05:03;95227.81;;;24.95;48.50
78149;BME280;67396;42.664;23.382;2023-07-13T05:07:29;95224.13;;;24.53;50.31
78149;BME280;67396;42.664;23.382;2023-07-13T05:09:55;95229.44;;;24.42;50.85
78149;BME280;67396;42.664;23.382;2023-07-13T05:12:20;95222.56;;;24.33;51.59
78149;BME280;67396;42.664;23.382;2023-07-13T05:14:46;95225.22;;;24.37;51.48
78149;BME280;67396;42.664;23.382;2023-07-13T05:17:11;95231.59;;;24.65;50.95
78149;BME280;67396;42.664;23.382;2023-07-13T05:19:37;95239.69;;;24.63;50.86
78149;BME280;67396;42.664;23.382;2023-07-13T05:22:02;95239.84;;;24.68;50.73
78149;BME280;67396;42.664;23.382;2023-07-13T05:24:29;95233.44;;;24.77;50.10
78149;BME280;67396;42.664;23.382;2023-07-13T05:26:55;95232.22;;;24.69;50.58
78149;BME280;67396;42.664;23.382;2023-07-13T05:29:21;95240.88;;;25.07;49.77
78149;BME280;67396;42.664;23.382;2023-07-13T05:31:47;95232.72;;;25.61;48.83
78149;BME280;67396;42.664;23.382;2023-07-13T05:34:13;95228.75;;;26.00;47.97
78149;BME280;67396;42.664;23.382;2023-07-13T05:36:38;95229.78;;;26.12;46.94
78149;BME280;67396;42.664;23.382;2023-07-13T05:39:04;95234.50;;;26.06;47.27
78149;BME280;67396;42.664;23.382;2023-07-13T05:41:29;95231.47;;;25.95;48.01
78149;BME280;67396;42.664;23.382;2023-07-13T05:43:54;95234.13;;;26.13;46.89
78149;BME280;67396;42.664;23.382;2023-07-13T05:46:20;95236.88;;;26.22;47.10
78149;BME280;67396;42.664;23.382;2023-07-13T05:48:45;95238.00;;;26.39;45.45
78149;BME280;67396;42.664;23.382;2023-07-13T05:51:11;95231.41;;;26.81;44.68
78149;BME280;67396;42.664;23.382;2023-07-13T05:53:36;95248.72;;;27.32;42.24
78149;BME280;67396;42.664;23.382;2023-07-13T05:56:02;95231.94;;;27.73;41.19
78149;BME280;67396;42.664;23.382;2023-07-13T05:58:27;95230.50;;;27.63;40.26
78149;BME280;67396;42.664;23.382;2023-07-13T06:01:13;95233.41;;;27.68;40.85
78149;BME280;67396;42.664;23.382;2023-07-13T06:03:38;95227.00;;;27.88;41.08
78149;BME280;67396;42.664;23.382;2023-07-13T06:06:05;95225.41;;;28.02;40.71
78149;BME280;67396;42.664;23.382;2023-07-13T06:08:31;95228.19;;;28.37;38.88
78149;BME280;67396;42.664;23.382;2023-07-13T06:11:14;95227.75;;;28.44;39.45
78149;BME280;67396;42.664;23.382;2023-07-13T06:13:39;95225.06;;;28.55;40.09
78149;BME280;67396;42.664;23.382;2023-07-13T06:16:05;95226.03;;;28.72;39.47
78149;BME280;67396;42.664;23.382;2023-07-13T06:18:33;95236.25;;;28.90;38.77
78149;BME280;67396;42.664;23.382;2023-07-13T06:20:58;95231.16;;;29.20;38.91
78149;BME280;67396;42.664;23.382;2023-07-13T06:23:24;95234.06;;;29.00;40.06
78149;BME280;67396;42.664;23.382;2023-07-13T06:25:51;95232.97;;;29.23;39.14
78149;BME280;67396;42.664;23.382;2023-07-13T06:28:17;95231.34;;;29.11;39.53
78149;BME280;67396;42.664;23.382;2023-07-13T06:30:42;95230.03;;;29.38;39.38
78149;BME280;67396;42.664;23.382;2023-07-13T06:33:07;95233.34;;;29.68;36.78
78149;BME280;67396;42.664;23.382;2023-07-13T06:35:33;95229.47;;;29.65;37.17
78149;BME280;67396;42.664;23.382;2023-07-13T06:38:00;95225.47;;;29.83;36.44
78149;BME280;67396;42.664;23.382;2023-07-13T06:40:25;95230.72;;;29.59;37.76
78149;BME280;67396;42.664;23.382;2023-07-13T06:42:53;95228.66;;;29.28;38.96
78149;BME280;67396;42.664;23.382;2023-07-13T06:45:19;95233.56;;;29.33;39.38
78149;BME280;67396;42.664;23.382;2023-07-13T06:47:44;95229.94;;;29.01;39.17
78149;BME280;67396;42.664;23.382;2023-07-13T06:50:09;95221.47;;;29.32;38.35
78149;BME280;67396;42.664;23.382;2023-07-13T06:52:35;95224.06;;;29.62;37.77
78149;BME280;67396;42.664;23.382;2023-07-13T06:55:00;95223.13;;;29.76;37.88
78149;BME280;67396;42.664;23.382;2023-07-13T06:57:26;95214.59;;;30.13;35.97
78149;BME280;67396;42.664;23.382;2023-07-13T06:59:52;95220.97;;;30.50;36.05
78149;BME280;67396;42.664;23.382;2023-07-13T07:02:18;95222.69;;;30.31;37.22
78149;BME280;67396;42.664;23.382;2023-07-13T07:04:43;95220.63;;;30.32;36.87
78149;BME280;67396;42.664;23.382;2023-07-13T07:07:08;95228.34;;;29.88;37.99
78149;BME280;67396;42.664;23.382;2023-07-13T07:09:34;95237.13;;;29.53;38.06
78149;BME280;67396;42.664;23.382;2023-07-13T07:11:59;95228.50;;;29.74;37.92
78149;BME280;67396;42.664;23.382;2023-07-13T07:14:25;95224.25;;;29.89;37.94
78149;BME280;67396;42.664;23.382;2023-07-13T07:16:50;95221.94;;;31.29;35.15
78149;BME280;67396;42.664;23.382;2023-07-13T07:19:16;95222.75;;;32.60;32.96
78149;BME280;67396;42.664;23.382;2023-07-13T07:21:41;95215.66;;;33.89;31.04
78149;BME280;67396;42.664;23.382;2023-07-13T07:24:07;95207.97;;;34.76;29.58
78149;BME280;67396;42.664;23.382;2023-07-13T07:26:33;95211.13;;;35.61;28.27
78149;BME280;67396;42.664;23.382;2023-07-13T07:28:58;95214.16;;;36.40;27.79
78149;BME280;67396;42.664;23.382;2023-07-13T07:31:24;95218.09;;;36.63;27.33
78149;BME280;67396;42.664;23.382;2023-07-13T07:33:49;95207.09;;;36.80;26.04
78149;BME280;67396;42.664;23.382;2023-07-13T07:36:15;95207.72;;;36.07;26.28
78149;BME280;67396;42.664;23.382;2023-07-13T07:38:41;95199.81;;;36.13;26.27
78149;BME280;67396;42.664;23.382;2023-07-13T07:41:07;95204.91;;;36.21;25.88
78149;BME280;67396;42.664;23.382;2023-07-13T07:43:32;95204.97;;;35.89;25.86
78149;BME280;67396;42.664;23.382;2023-07-13T07:45:58;95189.75;;;35.80;25.49
78149;BME280;67396;42.664;23.382;2023-07-13T07:48:23;95198.72;;;35.58;26.87
78149;BME280;67396;42.664;23.382;2023-07-13T07:50:48;95200.47;;;35.29;26.66
78149;BME280;67396;42.664;23.382;2023-07-13T07:53:15;95195.56;;;34.06;29.46
78149;BME280;67396;42.664;23.382;2023-07-13T07:55:40;95198.69;;;33.78;30.02
78149;BME280;67396;42.664;23.382;2023-07-13T07:58:06;95189.50;;;33.61;29.53
78149;BME280;67396;42.664;23.382;2023-07-13T08:00:32;95193.72;;;33.19;30.50
78149;BME280;67396;42.664;23.382;2023-07-13T08:02:58;95191.69;;;33.14;30.35
78149;BME280;67396;42.664;23.382;2023-07-13T08:05:24;95187.41;;;32.96;30.22
78149;BME280;67396;42.664;23.382;2023-07-13T08:07:49;95184.59;;;32.38;30.05
78149;BME280;67396;42.664;23.382;2023-07-13T08:10:15;95175.19;;;31.91;31.18
78149;BME280;67396;42.664;23.382;2023-07-13T08:12:41;95166.75;;;31.63;33.57
78149;BME280;67396;42.664;23.382;2023-07-13T08:15:09;95167.19;;;31.90;31.47
78149;BME280;67396;42.664;23.382;2023-07-13T08:17:35;95167.19;;;31.90;31.71
78149;BME280;67396;42.664;23.382;2023-07-13T08:20:01;95168.50;;;31.83;32.24
78149;BME280;67396;42.664;23.382;2023-07-13T08:22:27;95162.72;;;32.22;31.65
78149;BME280;67396;42.664;23.382;2023-07-13T08:24:52;95165.84;;;32.19;31.75
78149;BME280;67396;42.664;23.382;2023-07-13T08:27:22;95161.16;;;32.21;32.07
78149;BME280;67396;42.664;23.382;2023-07-13T08:29:48;95159.88;;;32.28;32.02
78149;BME280;67396;42.664;23.382;2023-07-13T08:32:14;95161.97;;;32.16;32.16
78149;BME280;67396;42.664;23.382;2023-07-13T08:34:39;95155.47;;;32.21;31.46
78149;BME280;67396;42.664;23.382;2023-07-13T08:37:06;95153.13;;;32.31;31.51
78149;BME280;67396;42.664;23.382;2023-07-13T08:39:32;95148.22;;;32.31;31.72
78149;BME280;67396;42.664;23.382;2023-07-13T08:44:45;95142.56;;;32.26;31.85
78149;BME280;67396;42.664;23.382;2023-07-13T08:47:21;95150.66;;;32.57;32.24
78149;BME280;67396;42.664;23.382;2023-07-13T08:49:48;95142.81;;;32.74;31.34
78149;BME280;67396;42.664;23.382;2023-07-13T08:52:55;95145.28;;;32.95;30.35
78149;BME280;67396;42.664;23.382;2023-07-13T08:55:27;95151.44;;;32.99;31.68
78149;BME280;67396;42.664;23.382;2023-07-13T08:58:10;95154.47;;;33.12;31.25
78149;BME280;67396;42.664;23.382;2023-07-13T09:00:48;95145.88;;;33.17;31.65
78149;BME280;67396;42.664;23.382;2023-07-13T09:03:24;95153.69;;;33.11;30.80
78149;BME280;67396;42.664;23.382;2023-07-13T09:05:57;95168.56;;;33.29;30.21
78149;BME280;67396;42.664;23.382;2023-07-13T09:08:36;95166.56;;;33.23;29.82
78149;BME280;67396;42.664;23.382;2023-07-13T09:13:37;95177.69;;;32.80;31.83
78149;BME280;67396;42.664;23.382;2023-07-13T09:16:05;95186.44;;;32.30;32.46
78149;BME280;67396;42.664;23.382;2023-07-13T09:18:50;95181.66;;;31.92;33.15
78149;BME280;67396;42.664;23.382;2023-07-13T09:21:22;95165.78;;;32.30;33.08
78149;BME280;67396;42.664;23.382;2023-07-13T09:23:52;95176.09;;;32.85;32.14
78149;BME280;67396;42.664;23.382;2023-07-13T09:26:23;95169.22;;;33.76;30.58
78149;BME280;67396;42.664;23.382;2023-07-13T09:28:57;95166.72;;;34.77;28.20
78149;BME280;67396;42.664;23.382;2023-07-13T09:31:28;95166.50;;;36.03;27.12
78149;BME280;67396;42.664;23.382;2023-07-13T09:33:56;95165.94;;;37.17;24.95
78149;BME280;67396;42.664;23.382;2023-07-13T09:36:27;95166.63;;;37.93;23.79
78149;BME280;67396;42.664;23.382;2023-07-13T09:39:38;95161.66;;;38.15;23.28
78149;BME280;67396;42.664;23.382;2023-07-13T09:44:38;95169.03;;;38.67;22.32
78149;BME280;67396;42.664;23.382;2023-07-13T09:47:16;95150.72;;;38.78;21.74
78149;BME280;67396;42.664;23.382;2023-07-13T09:49:42;95147.13;;;38.92;22.01
78149;BME280;67396;42.664;23.382;2023-07-13T09:52:12;95146.25;;;39.05;21.49
78149;BME280;67396;42.664;23.382;2023-07-13T09:54:39;95136.25;;;38.98;21.61
78149;BME280;67396;42.664;23.382;2023-07-13T09:57:31;95132.00;;;38.84;22.20
78149;BME280;67396;42.664;23.382;2023-07-13T09:59:56;95127.41;;;38.89;23.03
78149;BME280;67396;42.664;23.382;2023-07-13T10:02:34;95122.66;;;38.99;21.93
78149;BME280;67396;42.664;23.382;2023-07-13T10:05:11;95127.28;;;39.02;21.85
78149;BME280;67396;42.664;23.382;2023-07-13T10:07:41;95115.59;;;39.07;21.66
78149;BME280;67396;42.664;23.382;2023-07-13T10:10:18;95116.16;;;38.98;22.24
78149;BME280;67396;42.664;23.382;2023-07-13T10:12:45;95117.66;;;38.92;22.50
78149;BME280;67396;42.664;23.382;2023-07-13T10:15:20;95115.31;;;38.83;22.18
78149;BME280;67396;42.664;23.382;2023-07-13T10:17:46;95111.13;;;38.84;22.24
78149;BME280;67396;42.664;23.382;2023-07-13T10:20:12;95111.25;;;38.70;22.51
78149;BME280;67396;42.664;23.382;2023-07-13T10:25:20;95112.72;;;37.92;23.02
78149;BME280;67396;42.664;23.382;2023-07-13T10:27:50;95116.75;;;38.17;23.25
78149;BME280;67396;42.664;23.382;2023-07-13T10:30:21;95112.00;;;38.27;22.96
78149;BME280;67396;42.664;23.382;2023-07-13T10:32:49;95103.53;;;38.14;22.55
78149;BME280;67396;42.664;23.382;2023-07-13T10:35:17;95105.13;;;37.45;23.76
78149;BME280;67396;42.664;23.382;2023-07-13T10:38:11;95098.56;;;37.03;24.32
78149;BME280;67396;42.664;23.382;2023-07-13T10:40:43;95089.97;;;36.82;24.13
78149;BME280;67396;42.664;23.382;2023-07-13T10:43:21;95088.31;;;36.40;24.47
78149;BME280;67396;42.664;23.382;2023-07-13T10:45:50;95088.97;;;36.06;25.14
78149;BME280;67396;42.664;23.382;2023-07-13T10:48:17;95081.75;;;36.05;25.37
78149;BME280;67396;42.664;23.382;2023-07-13T10:50:44;95075.63;;;35.88;26.14
78149;BME280;67396;42.664;23.382;2023-07-13T10:53:30;95071.84;;;35.80;25.61
78149;BME280;67396;42.664;23.382;2023-07-13T10:56:23;95064.59;;;35.53;23.33
78149;BME280;67396;42.664;23.382;2023-07-13T10:59:02;95060.66;;;34.79;22.55
78149;BME280;67396;42.664;23.382;2023-07-13T11:01:54;95054.97;;;34.04;22.34
78149;BME280;67396;42.664;23.382;2023-07-13T11:04:21;95048.69;;;33.62;23.12
78149;BME280;67396;42.664;23.382;2023-07-13T11:06:53;95050.13;;;33.74;23.50
78149;BME280;67396;42.664;23.382;2023-07-13T11:09:40;95044.44;;;33.74;22.98
78149;BME280;67396;42.664;23.382;2023-07-13T11:15:01;95035.41;;;33.46;23.60
78149;BME280;67396;42.664;23.382;2023-07-13T11:17:54;95028.41;;;33.47;23.63
78149;BME280;67396;42.664;23.382;2023-07-13T11:20:36;95028.25;;;33.39;23.07
78149;BME280;67396;42.664;23.382;2023-07-13T11:23:19;95025.31;;;33.45;22.15
78149;BME280;67396;42.664;23.382;2023-07-13T11:25:45;95031.28;;;33.22;21.48
78149;BME280;67396;42.664;23.382;2023-07-13T11:33:27;95030.06;;;33.12;23.01
78149;BME280;67396;42.664;23.382;2023-07-13T11:36:05;95023.50;;;32.93;22.92
78149;BME280;67396;42.664;23.382;2023-07-13T11:38:38;95012.13;;;32.93;23.87
78149;BME280;67396;42.664;23.382;2023-07-13T11:41:21;95007.78;;;32.86;23.41
78149;BME280;67396;42.664;23.382;2023-07-13T11:43:54;95008.06;;;32.83;24.01
78149;BME280;67396;42.664;23.382;2023-07-13T11:46:25;95010.13;;;32.88;23.99
78149;BME280;67396;42.664;23.382;2023-07-13T11:48:51;95013.19;;;32.90;24.21
78149;BME280;67396;42.664;23.382;2023-07-13T11:53:49;95006.59;;;33.06;24.91
78149;BME280;67396;42.664;23.382;2023-07-13T11:56:15;95001.59;;;33.12;24.88
78149;BME280;67396;42.664;23.382;2023-07-13T11:58:41;95000.88;;;33.06;25.06
78149;BME280;67396;42.664;23.382;2023-07-13T12:01:22;94997.09;;;32.98;24.05
78149;BME280;67396;42.664;23.382;2023-07-13T12:03:49;94997.09;;;32.98;24.65
78149;BME280;67396;42.664;23.382;2023-07-13T12:06:34;94991.88;;;33.02;25.30
78149;BME280;67396;42.664;23.382;2023-07-13T12:09:13;94986.59;;;33.12;25.10
78149;BME280;67396;42.664;23.382;2023-07-13T12:11:42;94982.13;;;33.16;24.77
78149;BME280;67396;42.664;23.382;2023-07-13T12:14:14;94984.69;;;33.20;25.91
78149;BME280;67396;42.664;23.382;2023-07-13T12:16:40;94984.66;;;33.25;26.19
78149;BME280;67396;42.664;23.382;2023-07-13T12:19:16;94976.13;;;33.25;26.19
78149;BME280;67396;42.664;23.382;2023-07-13T12:21:43;94967.22;;;33.10;26.26
78149;BME280;67396;42.664;23.382;2023-07-13T12:24:16;94970.59;;;33.09;25.57
78149;BME280;67396;42.664;23.382;2023-07-13T12:26:42;94959.16;;;33.14;25.65
78149;BME280;67396;42.664;23.382;2023-07-13T12:29:15;94958.22;;;33.06;25.00
78149;BME280;67396;42.664;23.382;2023-07-13T12:31:43;94949.78;;;32.95;25.86
78149;BME280;67396;42.664;23.382;2023-07-13T12:34:18;94946.84;;;33.06;24.87
78149;BME280;67396;42.664;23.382;2023-07-13T12:36:53;94946.47;;;33.15;24.63
78149;BME280;67396;42.664;23.382;2023-07-13T12:39:28;94936.28;;;33.25;24.14
78149;BME280;67396;42.664;23.382;2023-07-13T12:44:46;94934.47;;;33.47;25.51
78149;BME280;67396;42.664;23.382;2023-07-13T12:47:14;94937.28;;;33.90;24.29
78149;BME280;67396;42.664;23.382;2023-07-13T12:49:54;94926.19;;;35.14;22.60
78149;BME280;67396;42.664;23.382;2023-07-13T12:52:32;94927.19;;;36.37;21.24
78149;BME280;67396;42.664;23.382;2023-07-13T12:55:05;94924.53;;;37.02;20.18
78149;BME280;67396;42.664;23.382;2023-07-13T12:57:39;94924.13;;;37.54;20.45
78149;BME280;67396;42.664;23.382;2023-07-13T13:02:55;94915.72;;;37.56;19.98
78149;BME280;67396;42.664;23.382;2023-07-13T13:05:22;94917.81;;;36.50;21.13
78149;BME280;67396;42.664;23.382;2023-07-13T13:07:50;94905.91;;;36.25;22.27
78149;BME280;67396;42.664;23.382;2023-07-13T13:10:16;94906.00;;;35.99;22.63
78149;BME280;67396;42.664;23.382;2023-07-13T13:12:42;94902.88;;;35.63;23.64
78149;BME280;67396;42.664;23.382;2023-07-13T13:15:11;94893.03;;;35.37;23.37
78149;BME280;67396;42.664;23.382;2023-07-13T13:17:37;94894.13;;;35.21;23.76
78149;BME280;67396;42.664;23.382;2023-07-13T13:20:15;94901.47;;;35.03;24.21
78149;BME280;67396;42.664;23.382;2023-07-13T13:22:41;94898.09;;;34.92;23.67
78149;BME280;67396;42.664;23.382;2023-07-13T13:25:10;94901.38;;;34.83;23.90
78149;BME280;67396;42.664;23.382;2023-07-13T13:27:36;94897.84;;;34.77;23.92